createdAt,value
2022-10-21T00:01:08.786Z,18.87
2022-10-21T00:03:38.598Z,19.63
2022-10-21T00:06:07.680Z,18.20
2022-10-21T00:08:36.236Z,18.60
2022-10-21T00:11:06.147Z,19.00
2022-10-21T00:13:35.805Z,18.10
2022-10-21T00:16:06.500Z,18.17
2022-10-21T00:18:35.787Z,18.87
2022-10-21T00:21:08.312Z,17.83
2022-10-21T00:23:36.631Z,18.10
2022-10-21T00:26:05.345Z,18.30
2022-10-21T00:28:37.214Z,17.70
2022-10-21T00:31:08.561Z,17.67
2022-10-21T00:33:37.148Z,17.90
2022-10-21T00:36:08.327Z,18.87
2022-10-21T00:38:37.572Z,17.63
2022-10-21T00:41:05.865Z,17.10
2022-10-21T00:43:34.256Z,18.33
2022-10-21T00:46:06.146Z,17.80
2022-10-21T00:48:37.007Z,18.50
2022-10-21T00:51:10.107Z,18.07
2022-10-21T00:53:41.079Z,18.73
2022-10-21T00:56:16.520Z,17.87
2022-10-21T00:58:47.743Z,17.60
2022-10-21T01:01:19.196Z,17.97
2022-10-21T01:03:50.247Z,16.70
2022-10-21T01:06:23.066Z,18.10
2022-10-21T01:08:53.109Z,18.10
2022-10-21T01:11:22.667Z,17.00
2022-10-21T01:14:11.392Z,16.63
2022-10-21T01:16:48.213Z,16.70
2022-10-21T01:20:02.241Z,17.40
2022-10-21T01:23:04.079Z,17.10
2022-10-21T01:25:53.410Z,17.17
2022-10-21T01:28:34.761Z,17.33
2022-10-21T01:31:10.410Z,16.20
2022-10-21T01:33:43.189Z,16.40
2022-10-21T01:36:23.114Z,16.83
2022-10-21T01:39:02.395Z,16.30
2022-10-21T01:41:36.575Z,17.00
2022-10-21T01:44:11.334Z,16.30
2022-10-21T01:46:44.923Z,15.60
2022-10-21T01:49:19.284Z,16.60
2022-10-21T01:51:48.668Z,16.83
2022-10-21T01:54:22.396Z,16.70
2022-10-21T01:56:51.928Z,16.53
2022-10-21T01:59:21.940Z,16.87
2022-10-21T02:01:52.731Z,16.87
2022-10-21T02:04:21.819Z,16.73
2022-10-21T02:06:50.490Z,16.10
2022-10-21T02:09:18.725Z,16.87
2022-10-21T02:11:51.667Z,16.17
2022-10-21T02:14:24.629Z,16.47
2022-10-21T02:16:58.308Z,17.17
2022-10-21T02:19:27.082Z,16.07
2022-10-21T02:21:58.493Z,17.27
2022-10-21T02:24:34.486Z,16.50
2022-10-21T02:27:02.830Z,16.70
2022-10-21T02:29:35.362Z,17.10
2022-10-21T02:32:17.434Z,17.67
2022-10-21T02:35:00.838Z,16.67
2022-10-21T02:37:33.997Z,17.10
2022-10-21T02:40:07.940Z,16.30
2022-10-21T02:42:41.383Z,16.37
2022-10-21T02:45:11.218Z,16.87
2022-10-21T02:47:41.629Z,17.93
2022-10-21T02:50:10.537Z,16.87
2022-10-21T02:52:38.810Z,17.43
2022-10-21T02:55:07.590Z,17.33
2022-10-21T02:57:36.091Z,17.93
2022-10-21T03:00:05.465Z,17.57
2022-10-21T03:02:33.843Z,16.87
2022-10-21T03:05:03.412Z,17.83
2022-10-21T03:07:31.637Z,17.40
2022-10-21T03:09:59.876Z,17.13
2022-10-21T03:12:28.083Z,16.93
2022-10-21T03:14:56.426Z,17.67
2022-10-21T03:17:25.432Z,16.00
2022-10-21T03:19:53.793Z,17.53
2022-10-21T03:22:23.312Z,16.13
2022-10-21T03:24:51.555Z,16.57
2022-10-21T03:27:19.931Z,17.67
2022-10-21T03:29:48.181Z,17.60
2022-10-21T03:32:16.404Z,17.30
2022-10-21T03:34:44.593Z,15.67
2022-10-21T03:37:12.791Z,16.40
2022-10-21T03:39:42.394Z,16.93
2022-10-21T03:42:10.525Z,17.57
2022-10-21T03:44:38.735Z,16.90
2022-10-21T03:47:06.874Z,17.20
2022-10-21T03:52:08.158Z,16.53
2022-10-21T03:54:36.402Z,16.27
2022-10-21T03:57:06.799Z,15.93
2022-10-21T03:59:34.983Z,15.90
2022-10-21T04:02:03.302Z,16.90
2022-10-21T04:04:31.531Z,15.93
2022-10-21T04:06:59.785Z,15.33
2022-10-21T04:09:28.122Z,15.40
2022-10-21T04:11:56.338Z,16.53
2022-10-21T04:14:25.876Z,15.47
2022-10-21T04:17:06.543Z,15.47
2022-10-21T04:19:35.433Z,15.27
2022-10-21T04:22:03.666Z,16.13
2022-10-21T04:24:32.030Z,15.43
2022-10-21T04:27:00.188Z,17.03
2022-10-21T04:29:29.795Z,16.13
2022-10-21T04:31:58.066Z,15.50
2022-10-21T04:34:26.454Z,15.17
2022-10-21T04:36:54.627Z,15.60
2022-10-21T04:39:22.825Z,15.93
2022-10-21T04:41:52.989Z,15.77
2022-10-21T04:44:21.222Z,15.40
2022-10-21T04:46:50.748Z,14.17
2022-10-21T04:49:19.153Z,14.83
2022-10-21T04:51:47.340Z,13.73
2022-10-21T04:54:15.617Z,15.20
2022-10-21T04:56:44.563Z,14.43
2022-10-21T04:59:12.755Z,14.50
2022-10-21T05:01:40.944Z,15.53
2022-10-21T05:04:10.672Z,13.83
2022-10-21T05:06:38.881Z,13.83
2022-10-21T05:09:07.418Z,14.60
2022-10-21T05:11:35.690Z,14.40
2022-10-21T05:14:03.952Z,14.90
2022-10-21T05:16:32.128Z,14.90
2022-10-21T05:19:00.662Z,15.13
2022-10-21T05:21:30.238Z,14.43
2022-10-21T05:23:58.490Z,13.73
2022-10-21T05:26:28.953Z,15.00
2022-10-21T05:28:57.178Z,14.53
2022-10-21T05:31:25.468Z,15.20
2022-10-21T05:33:53.775Z,14.00
2022-10-21T05:36:24.017Z,14.63
2022-10-21T05:38:54.374Z,14.57
2022-10-21T05:41:22.533Z,15.07
2022-10-21T05:43:50.739Z,15.37
2022-10-21T05:46:18.990Z,15.60
2022-10-21T05:51:16.234Z,15.03
2022-10-21T05:53:44.539Z,15.13
2022-10-21T05:56:14.048Z,16.30
2022-10-21T05:58:42.257Z,15.63
2022-10-21T06:01:10.538Z,15.57
2022-10-21T06:03:39.009Z,15.10
2022-10-21T06:06:09.273Z,15.60
2022-10-21T06:08:39.874Z,14.10
2022-10-21T06:11:09.966Z,14.90
2022-10-21T06:13:40.002Z,15.60
2022-10-21T06:16:10.398Z,14.30
2022-10-21T06:18:39.036Z,14.70
2022-10-21T06:21:07.976Z,14.10
2022-10-21T06:23:36.871Z,14.40
2022-10-21T06:26:07.563Z,13.83
2022-10-21T06:28:38.554Z,14.27
2022-10-21T06:31:09.457Z,13.73
2022-10-21T06:33:37.639Z,13.53
2022-10-21T06:36:06.045Z,14.70
2022-10-21T06:38:34.241Z,13.73
2022-10-21T06:41:03.301Z,12.83
2022-10-21T06:43:31.682Z,12.57
2022-10-21T06:46:03.466Z,13.20
2022-10-21T06:48:33.857Z,12.97
2022-10-21T06:51:04.301Z,13.13
2022-10-21T06:53:35.173Z,13.67
2022-10-21T06:56:09.095Z,12.77
2022-10-21T06:58:38.399Z,12.93
2022-10-21T07:01:21.280Z,11.90
2022-10-21T07:04:00.554Z,11.90
2022-10-21T07:06:28.946Z,12.50
2022-10-21T07:08:58.855Z,12.07
2022-10-21T07:11:28.104Z,12.50
2022-10-21T07:13:56.784Z,11.80
2022-10-21T07:16:26.866Z,10.77
2022-10-21T07:18:55.516Z,10.85
2022-10-21T07:21:27.166Z,10.88
2022-10-21T07:23:58.995Z,11.65
2022-10-21T07:26:29.754Z,10.77
2022-10-21T07:29:00.512Z,11.02
2022-10-21T07:31:31.927Z,10.75
2022-10-21T07:34:01.020Z,11.60
2022-10-21T07:36:32.622Z,10.73
2022-10-21T07:39:05.325Z,11.07
2022-10-21T07:41:35.524Z,11.77
2022-10-21T07:44:04.330Z,11.63
2022-10-21T07:46:32.693Z,11.00
2022-10-21T07:49:00.886Z,11.43
2022-10-21T07:51:31.541Z,10.68
2022-10-21T07:54:01.623Z,11.20
2022-10-21T07:56:32.826Z,11.43
2022-10-21T07:59:02.667Z,10.63
2022-10-21T08:01:31.046Z,10.55
2022-10-21T08:04:00.002Z,9.98
2022-10-21T08:06:30.184Z,10.82
2022-10-21T08:08:58.660Z,10.63
2022-10-21T08:11:28.925Z,9.73
2022-10-21T08:13:57.685Z,9.77
2022-10-21T08:16:26.685Z,9.88
2022-10-21T08:18:55.431Z,9.93
2022-10-21T08:21:23.852Z,9.63
2022-10-21T08:23:53.507Z,9.80
2022-10-21T08:26:21.722Z,9.63
2022-10-21T08:28:50.058Z,9.98
2022-10-21T08:31:20.733Z,10.23
2022-10-21T08:33:49.685Z,10.82
2022-10-21T08:36:20.201Z,9.38
2022-10-21T08:38:48.842Z,9.55
2022-10-21T08:41:37.244Z,10.20
2022-10-21T08:44:07.911Z,9.43
2022-10-21T08:46:40.268Z,9.52
2022-10-21T08:49:17.457Z,9.43
2022-10-21T08:51:51.110Z,9.13
2022-10-21T08:54:22.686Z,9.70
2022-10-21T08:56:59.203Z,9.13
2022-10-21T08:59:28.295Z,9.55
2022-10-21T09:02:01.636Z,9.25
2022-10-21T09:04:38.559Z,9.73
2022-10-21T09:07:15.206Z,9.27
2022-10-21T09:09:48.786Z,8.98
2022-10-21T09:12:27.038Z,8.85
2022-10-21T09:15:17.006Z,9.15
2022-10-21T09:17:59.983Z,9.75
2022-10-21T09:20:41.216Z,9.70
2022-10-21T09:23:25.261Z,9.25
2022-10-21T09:25:59.391Z,9.35
2022-10-21T09:28:31.283Z,9.80
2022-10-21T09:31:01.812Z,9.07
2022-10-21T09:33:33.153Z,8.60
2022-10-21T09:36:04.487Z,8.68
2022-10-21T09:38:44.809Z,8.73
2022-10-21T09:41:17.750Z,9.35
2022-10-21T09:43:49.137Z,8.93
2022-10-21T09:46:18.124Z,8.85
2022-10-21T09:51:40.344Z,8.80
2022-10-21T09:54:12.720Z,8.82
2022-10-21T09:56:45.266Z,9.43
2022-10-21T09:59:18.636Z,8.68
2022-10-21T10:01:48.969Z,9.15
2022-10-21T10:04:24.424Z,8.88
2022-10-21T10:06:52.992Z,9.20
2022-10-21T10:09:28.805Z,8.65
2022-10-21T10:12:01.469Z,9.15
2022-10-21T10:14:37.125Z,8.60
2022-10-21T10:17:29.014Z,9.35
2022-10-21T10:20:24.067Z,9.32
2022-10-21T10:23:10.986Z,9.40
2022-10-21T10:25:40.611Z,8.75
2022-10-21T10:28:20.921Z,9.25
2022-10-21T10:30:53.782Z,9.30
2022-10-21T10:33:24.820Z,9.57
2022-10-21T10:35:55.712Z,8.73
2022-10-21T10:38:29.888Z,8.98
2022-10-21T10:41:07.108Z,9.00
2022-10-21T10:43:36.987Z,9.18
2022-10-21T10:46:10.302Z,9.60
2022-10-21T10:48:43.358Z,9.40
2022-10-21T10:51:27.615Z,9.25
2022-10-21T10:54:04.958Z,9.00
2022-10-21T10:56:39.050Z,8.57
2022-10-21T10:59:15.684Z,9.05
2022-10-21T11:01:52.816Z,8.85
2022-10-21T11:04:26.891Z,9.15
2022-10-21T11:07:01.883Z,8.38
2022-10-21T11:09:32.673Z,8.93
2022-10-21T11:12:04.411Z,9.18
2022-10-21T11:14:32.680Z,9.60
2022-10-21T11:17:10.365Z,8.82
2022-10-21T11:19:46.584Z,8.93
2022-10-21T11:22:22.107Z,9.63
2022-10-21T11:24:59.787Z,9.63
2022-10-21T11:27:49.896Z,9.57
2022-10-21T11:30:20.755Z,8.85
2022-10-21T11:33:08.604Z,9.00
2022-10-21T11:35:48.108Z,8.38
2022-10-21T11:38:32.849Z,9.63
2022-10-21T11:41:11.392Z,8.43
2022-10-21T11:43:50.839Z,9.63
2022-10-21T11:46:25.477Z,9.38
2022-10-21T11:49:11.994Z,9.90
2022-10-21T11:51:47.990Z,9.10
2022-10-21T11:54:39.976Z,9.20
2022-10-21T11:57:18.181Z,8.90
2022-10-21T12:00:02.917Z,8.85
2022-10-21T12:02:44.163Z,8.98
2022-10-21T12:05:30.810Z,8.32
2022-10-21T12:08:15.440Z,9.25
2022-10-21T12:10:49.991Z,8.73
2022-10-21T12:13:24.126Z,8.93
2022-10-21T12:15:56.369Z,9.07
2022-10-21T12:18:27.406Z,9.13
2022-10-21T12:20:59.825Z,8.93
2022-10-21T12:23:32.029Z,8.18
2022-10-21T12:26:20.090Z,8.32
2022-10-21T12:28:54.945Z,8.27
2022-10-21T12:31:32.392Z,8.05
2022-10-21T12:34:01.108Z,8.18
2022-10-21T12:36:42.468Z,7.68
2022-10-21T12:39:38.562Z,8.10
2022-10-21T12:42:12.284Z,8.85
2022-10-21T12:44:46.036Z,7.97
2022-10-21T12:47:27.133Z,7.70
2022-10-21T12:50:08.908Z,7.88
2022-10-21T12:52:41.355Z,7.45
2022-10-21T12:55:22.415Z,8.07
2022-10-21T12:57:59.052Z,7.45
2022-10-21T13:00:56.468Z,7.47
2022-10-21T13:03:53.205Z,7.43
2022-10-21T13:06:54.036Z,7.40
2022-10-21T13:09:39.245Z,7.88
2022-10-21T13:12:29.889Z,7.53
2022-10-21T13:14:59.386Z,7.57
2022-10-21T13:17:55.447Z,7.88
2022-10-21T13:20:59.693Z,7.90
2022-10-21T13:23:39.213Z,7.78
2022-10-21T13:26:20.633Z,8.07
2022-10-21T13:29:01.207Z,7.70
2022-10-21T13:31:30.470Z,7.72
2022-10-21T13:33:58.904Z,7.80
2022-10-21T13:39:23.977Z,8.48
2022-10-21T13:42:05.331Z,7.50
2022-10-21T13:44:38.693Z,7.50
2022-10-21T13:47:28.233Z,7.65
2022-10-21T13:49:58.781Z,7.78
2022-10-21T13:52:30.642Z,7.70
2022-10-21T13:54:59.709Z,7.68
2022-10-21T13:57:33.777Z,7.72
2022-10-21T14:00:03.999Z,7.50
2022-10-21T14:02:32.899Z,7.90
2022-10-21T14:05:01.252Z,7.50
2022-10-21T14:07:29.810Z,7.15
2022-10-21T14:09:59.621Z,8.30
2022-10-21T14:12:33.456Z,7.40
2022-10-21T14:15:12.892Z,7.40
2022-10-21T14:17:45.790Z,6.97
2022-10-21T14:20:20.071Z,7.85
2022-10-21T14:22:51.507Z,8.02
2022-10-21T14:25:20.168Z,8.32
2022-10-21T14:27:49.015Z,7.88
2022-10-21T14:30:22.057Z,7.70
2022-10-21T14:32:52.015Z,7.05
2022-10-21T14:35:27.947Z,7.18
2022-10-21T14:37:58.021Z,7.25
2022-10-21T14:40:32.252Z,6.93
2022-10-21T14:43:03.495Z,7.57
2022-10-21T14:45:36.323Z,7.30
2022-10-21T14:48:10.594Z,7.18
2022-10-21T14:50:40.351Z,6.97
2022-10-21T14:53:17.806Z,7.22
2022-10-21T14:55:47.948Z,7.20
2022-10-21T14:58:23.035Z,7.25
2022-10-21T15:00:58.759Z,8.27
2022-10-21T15:03:41.416Z,7.43
2022-10-21T15:06:11.941Z,7.53
2022-10-21T15:08:42.892Z,7.50
2022-10-21T15:11:23.740Z,8.18
2022-10-21T15:14:00.788Z,8.07
2022-10-21T15:16:31.497Z,7.95
2022-10-21T15:19:07.004Z,7.32
2022-10-21T15:21:38.845Z,7.30
2022-10-21T15:24:08.570Z,7.60
2022-10-21T15:26:38.830Z,8.18
2022-10-21T15:29:15.671Z,7.93
2022-10-21T15:31:45.494Z,8.25
2022-10-21T15:34:15.258Z,7.82
2022-10-21T15:36:44.242Z,8.35
2022-10-21T15:39:12.916Z,7.93
2022-10-21T15:41:41.491Z,8.68
2022-10-21T15:44:19.203Z,8.38
2022-10-21T15:46:50.398Z,8.98
2022-10-21T15:49:21.198Z,8.63
2022-10-21T15:51:50.439Z,8.95
2022-10-21T15:54:19.948Z,9.27
2022-10-21T15:56:50.221Z,8.65
2022-10-21T15:59:20.450Z,9.57
2022-10-21T16:01:51.474Z,9.05
2022-10-21T16:04:20.115Z,9.82
2022-10-21T16:06:49.615Z,10.13
2022-10-21T16:09:21.027Z,10.50
2022-10-21T16:12:06.294Z,10.00
2022-10-21T16:14:34.647Z,9.90
2022-10-21T16:17:04.377Z,10.02
2022-10-21T16:19:32.705Z,9.88
2022-10-21T16:22:00.927Z,10.10
2022-10-21T16:24:29.160Z,10.02
2022-10-21T16:26:57.359Z,9.75
2022-10-21T16:29:26.701Z,10.85
2022-10-21T16:31:55.327Z,9.80
2022-10-21T16:34:25.021Z,10.70
2022-10-21T16:36:53.187Z,10.63
2022-10-21T16:39:25.353Z,10.48
2022-10-21T16:41:53.879Z,10.68
2022-10-21T16:44:22.096Z,10.70
2022-10-21T16:46:52.425Z,10.93
2022-10-21T16:49:23.246Z,11.10
2022-10-21T16:51:53.636Z,12.05
2022-10-21T16:54:24.602Z,10.27
2022-10-21T16:56:55.121Z,10.77
2022-10-21T16:59:24.497Z,10.98
2022-10-21T17:01:52.853Z,11.73
2022-10-21T17:04:21.040Z,11.40
2022-10-21T17:06:49.802Z,12.00
2022-10-21T17:09:20.579Z,11.73
2022-10-21T17:11:48.829Z,11.77
2022-10-21T17:14:19.291Z,12.48
2022-10-21T17:16:47.904Z,11.02
2022-10-21T17:19:16.472Z,11.48
2022-10-21T17:21:45.350Z,11.90
2022-10-21T17:24:16.820Z,11.93
2022-10-21T17:26:46.667Z,12.02
2022-10-21T17:29:15.646Z,11.57
2022-10-21T17:31:44.522Z,12.98
2022-10-21T17:34:25.520Z,11.95
2022-10-21T17:36:54.097Z,11.73
2022-10-21T17:39:22.598Z,12.70
2022-10-21T17:41:52.298Z,12.60
2022-10-21T17:44:21.026Z,12.85
2022-10-21T17:46:51.913Z,13.27
2022-10-21T17:49:20.102Z,12.82
2022-10-21T17:51:49.400Z,13.60
2022-10-21T17:54:18.163Z,13.35
2022-10-21T17:56:46.504Z,13.70
2022-10-21T17:59:16.163Z,13.70
2022-10-21T18:01:44.456Z,14.43
2022-10-21T18:04:13.586Z,13.88
2022-10-21T18:06:42.157Z,13.82
2022-10-21T18:09:10.621Z,14.38
2022-10-21T18:11:39.029Z,13.60
2022-10-21T18:14:07.251Z,13.43
2022-10-21T18:16:36.880Z,14.57
2022-10-21T18:19:05.291Z,13.80
2022-10-21T18:21:33.691Z,13.73
2022-10-21T18:24:01.825Z,13.73
2022-10-21T18:26:32.170Z,13.82
2022-10-21T18:29:03.070Z,15.02
2022-10-21T18:31:34.106Z,14.82
2022-10-21T18:34:05.094Z,14.93
2022-10-21T18:36:34.129Z,14.98
2022-10-21T18:39:02.678Z,15.57
2022-10-21T18:41:31.189Z,14.82
2022-10-21T18:44:01.803Z,15.25
2022-10-21T18:46:30.992Z,15.63
2022-10-21T18:48:59.293Z,14.73
2022-10-21T18:51:29.383Z,16.15
2022-10-21T18:53:57.726Z,15.27
2022-10-21T18:56:28.093Z,16.35
2022-10-21T18:58:57.419Z,16.35
2022-10-21T19:01:27.202Z,16.98
2022-10-21T19:03:56.746Z,16.70
2022-10-21T19:06:38.176Z,16.90
2022-10-21T19:09:13.036Z,16.45
2022-10-21T19:11:41.902Z,16.85
2022-10-21T19:14:13.872Z,17.83
2022-10-21T19:16:42.966Z,19.30
2022-10-21T19:19:11.780Z,19.67
2022-10-21T19:21:41.368Z,18.98
2022-10-21T19:24:09.880Z,19.40
2022-10-21T19:26:40.419Z,20.55
2022-10-21T19:29:10.664Z,20.08
2022-10-21T19:31:38.919Z,19.52
2022-10-21T19:34:07.352Z,19.33
2022-10-21T19:36:35.652Z,17.35
2022-10-21T19:39:05.807Z,17.52
2022-10-21T19:41:33.987Z,17.60
2022-10-21T19:44:02.375Z,17.20
2022-10-21T19:46:32.558Z,18.10
2022-10-21T19:49:02.301Z,17.13
2022-10-21T19:51:30.666Z,18.80
2022-10-21T19:53:59.302Z,20.08
2022-10-21T19:56:32.143Z,18.55
2022-10-21T19:59:03.262Z,19.45
2022-10-21T20:01:32.630Z,19.30
2022-10-21T20:04:03.930Z,20.05
2022-10-21T20:06:34.961Z,19.73
2022-10-21T20:09:06.018Z,18.98
2022-10-21T20:11:36.175Z,20.30
2022-10-21T20:14:04.996Z,19.63
2022-10-21T20:16:35.889Z,19.52
2022-10-21T20:19:05.993Z,18.83
2022-10-21T20:21:36.740Z,20.30
2022-10-21T20:24:05.609Z,20.05
2022-10-21T20:26:35.498Z,19.27
2022-10-21T20:29:03.680Z,20.23
2022-10-21T20:31:31.990Z,20.05
2022-10-21T20:34:00.171Z,19.60
2022-10-21T20:36:30.206Z,19.45
2022-10-21T20:39:00.540Z,19.85
2022-10-21T20:41:34.123Z,18.88
2022-10-21T20:44:04.709Z,18.92
2022-10-21T20:46:35.393Z,19.02
2022-10-21T20:49:05.643Z,19.50
2022-10-21T20:51:34.979Z,18.20
2022-10-21T20:54:04.891Z,17.98
2022-10-21T20:56:35.691Z,18.85
2022-10-21T20:59:06.340Z,18.42
2022-10-21T21:01:36.781Z,17.23
2022-10-21T21:04:08.305Z,18.58
2022-10-21T21:06:38.408Z,18.58
2022-10-21T21:11:55.203Z,18.48
2022-10-21T21:14:24.924Z,18.20
2022-10-21T21:16:53.093Z,17.88
2022-10-21T21:19:21.338Z,17.55
2022-10-21T21:21:49.795Z,17.48
2022-10-21T21:24:17.975Z,17.52
2022-10-21T21:26:46.325Z,17.10
2022-10-21T21:29:15.092Z,17.83
2022-10-21T21:31:44.755Z,17.95
2022-10-21T21:34:13.303Z,17.42
2022-10-21T21:36:41.866Z,18.63
2022-10-21T21:39:11.156Z,17.77
2022-10-21T21:41:39.503Z,17.40
2022-10-21T21:44:07.871Z,17.23
2022-10-21T21:46:36.055Z,17.63
2022-10-21T21:49:06.630Z,16.48
2022-10-21T21:51:36.488Z,18.02
2022-10-21T21:54:07.753Z,17.52
2022-10-21T21:56:36.282Z,17.00
2022-10-21T21:59:04.575Z,17.80
2022-10-21T22:01:32.828Z,19.20
2022-10-21T22:04:01.583Z,16.60
2022-10-21T22:06:33.549Z,17.35
2022-10-21T22:09:02.625Z,18.25
2022-10-21T22:11:32.453Z,17.75
2022-10-21T22:14:01.282Z,18.05
2022-10-21T22:16:31.047Z,17.75
2022-10-21T22:19:01.448Z,17.73
2022-10-21T22:21:32.449Z,17.92
2022-10-21T22:24:01.008Z,17.95
2022-10-21T22:26:29.924Z,18.23
2022-10-21T22:28:58.538Z,18.92
2022-10-21T22:31:29.503Z,20.48
2022-10-21T22:34:00.714Z,19.45
2022-10-21T22:36:30.309Z,18.30
2022-10-21T22:38:58.826Z,18.90
2022-10-21T22:41:27.405Z,18.73
2022-10-21T22:43:55.664Z,19.35
2022-10-21T22:46:39.145Z,20.05
2022-10-21T22:49:07.626Z,19.88
2022-10-21T22:51:37.136Z,18.95
2022-10-21T22:54:11.663Z,19.38
2022-10-21T22:56:43.561Z,20.20
2022-10-21T22:59:11.701Z,20.98
2022-10-21T23:01:39.881Z,20.23
2022-10-21T23:04:08.058Z,21.60
2022-10-21T23:06:37.716Z,20.30
2022-10-21T23:09:06.682Z,20.65
2022-10-21T23:11:35.065Z,20.33
2022-10-21T23:14:08.586Z,19.90
2022-10-21T23:16:38.283Z,20.42
2022-10-21T23:19:07.304Z,20.45
2022-10-21T23:21:37.396Z,20.08
2022-10-21T23:24:07.313Z,20.75
2022-10-21T23:26:36.709Z,19.75
2022-10-21T23:29:05.425Z,20.98
2022-10-21T23:31:33.841Z,20.75
2022-10-21T23:34:02.843Z,20.70
2022-10-21T23:36:31.084Z,20.52
2022-10-21T23:39:01.820Z,20.20
2022-10-21T23:41:30.305Z,20.63
2022-10-21T23:43:58.776Z,21.35
2022-10-21T23:49:00.194Z,20.90
2022-10-21T23:51:28.426Z,20.17
2022-10-21T23:53:56.838Z,21.15
2022-10-21T23:56:26.361Z,20.55
2022-10-21T23:58:54.607Z,21.15
